Terminal Aerodrome Forecast
Issued by NWS

Home | Current Version | Previous Version | Text Only | Print | Product List | Glossary On
Versions: 1 2 3 4 5 6 7 8 9 10 11 12 13 14 15 16 17 18 19 20
000
FTUS46 KMFR 250226 AAA
TAFLMT
TAF AMD
KLMT 250226Z 2502/2524 29012G20KT P6SM -SHRA SCT035 OVC060
     FM250500 VRB03KT P6SM -SHRA SCT035 BKN060
     FM250900 VRB03KT P6SM SCT035 BKN060
     FM251900 24011KT P6SM BKN060=

USA.gov is the U.S. government's official web portal to all federal, state and local government web resources and services.